Breu Branco, Brazil
Current Conditions -  °F | °C
As of 2:00 PM on Thursday 23 Oct 2014 (Local Time) from SBTU Reporting Station
Scattered Clouds Scattered Clouds  
Wind Chill: 82°   Ceiling: Unl
Heat Index: 88°   Visibility: 6mi
Dew Point: 73°   Wind: 7mph
Humidity: 74%   Direction: 60°ENE
Pressure: 29.91"   Gusts: NA
Location:  4.07°S, 49.64°W
Report Text: SBTU 231700Z 06006KT 9999 FEW020 SCT100 28/23 Q1013
Loading
Personal Weather Stations






























Interactive Weather Map
Tropical Storm Tracking
New forecast layout! Learn more

10-Day Weather Forecast

Advertisements
Track Severe Weather on mobile